createdAt,value
2022-08-22T01:20:51.128Z,95717.74
2022-08-22T01:23:40.626Z,95715.62
2022-08-22T01:26:33.369Z,95718.81
2022-08-22T01:29:43.201Z,95724.92
2022-08-22T01:32:43.239Z,95725.70
2022-08-22T01:35:33.621Z,95730.23
2022-08-22T01:38:18.942Z,95735.51
2022-08-22T01:41:07.033Z,95734.98
2022-08-22T01:43:59.930Z,95737.89
2022-08-22T01:46:49.322Z,95739.60
2022-08-22T01:49:45.429Z,95742.50
2022-08-22T01:52:30.180Z,95733.77
2022-08-22T01:55:27.292Z,95725.95
2022-08-22T01:58:03.963Z,95726.78
2022-08-22T02:00:52.253Z,95731.98
2022-08-22T02:03:55.873Z,95734.81
2022-08-22T02:06:56.480Z,95729.07
2022-08-22T02:09:57.087Z,95727.95
2022-08-22T02:13:04.626Z,95725.96
2022-08-22T02:15:39.538Z,95724.90
2022-08-22T02:18:10.544Z,95715.98
2022-08-22T02:20:47.956Z,95719.92
2022-08-22T02:23:53.217Z,95719.98
2022-08-22T02:26:44.778Z,95720.54
2022-08-22T02:29:30.087Z,95716.92
2022-08-22T02:32:16.204Z,95720.14
2022-08-22T02:35:11.177Z,95722.59
2022-08-22T02:38:08.847Z,95723.05
2022-08-22T02:41:01.256Z,95735.45
2022-08-22T02:43:52.322Z,95732.83
2022-08-22T02:46:52.825Z,95730.23
2022-08-22T02:49:43.632Z,95733.80
2022-08-22T02:56:48.612Z,95745.47
2022-08-22T02:59:33.075Z,95753.94
2022-08-22T03:02:29.416Z,95745.23
2022-08-22T03:05:15.996Z,95729.27
2022-08-22T03:08:05.941Z,95715.23
2022-08-22T03:10:41.388Z,95727.30
2022-08-22T03:13:17.833Z,95741.96
2022-08-22T03:15:57.275Z,95743.09
2022-08-22T03:18:33.752Z,95735.54
2022-08-22T03:21:42.260Z,95729.89
2022-08-22T03:24:26.715Z,95741.95
2022-08-22T03:27:32.444Z,95750.90
2022-08-22T03:30:07.653Z,95750.01
2022-08-22T03:32:57.336Z,95745.69
2022-08-22T03:35:39.790Z,95745.96
2022-08-22T03:38:40.838Z,95739.88
2022-08-22T03:41:46.417Z,95735.75
2022-08-22T03:44:47.075Z,95735.19
2022-08-22T03:47:49.933Z,95733.44
2022-08-22T03:50:57.360Z,95733.84
2022-08-22T03:53:41.695Z,95734.35
2022-08-22T03:56:41.580Z,95743.04
2022-08-22T03:59:51.801Z,95745.72
2022-08-22T04:03:10.408Z,95749.38
2022-08-22T04:06:04.842Z,95752.59
2022-08-22T04:09:05.072Z,95755.88
2022-08-22T04:11:50.206Z,95757.70
2022-08-22T04:14:41.085Z,95759.44
2022-08-22T04:17:50.709Z,95754.32
2022-08-22T04:20:38.173Z,95745.77
2022-08-22T04:23:29.947Z,95737.30
2022-08-22T04:26:12.372Z,95729.23
2022-08-22T04:28:57.559Z,95733.20
2022-08-22T04:31:48.174Z,95735.72
2022-08-22T04:34:38.976Z,95736.71
2022-08-22T04:37:20.004Z,95741.70
2022-08-22T04:40:04.491Z,95743.70
2022-08-22T04:42:41.738Z,95745.23
2022-08-22T04:45:34.017Z,95750.23
2022-08-22T04:48:17.132Z,95755.04
2022-08-22T04:51:24.876Z,95761.05
2022-08-22T04:54:19.223Z,95757.57
2022-08-22T04:57:32.993Z,95762.78
2022-08-22T05:00:08.731Z,95764.77
2022-08-22T05:02:44.761Z,95763.17
2022-08-22T05:05:28.946Z,95765.58
2022-08-22T05:08:03.102Z,95765.69
2022-08-22T05:10:41.492Z,95772.79
2022-08-22T05:13:18.505Z,95767.34
2022-08-22T05:15:52.811Z,95771.90
2022-08-22T05:18:29.616Z,95769.53
2022-08-22T05:21:07.426Z,95773.45
2022-08-22T05:23:53.391Z,95769.47
2022-08-22T05:26:23.210Z,95771.22
2022-08-22T05:29:03.089Z,95774.77
2022-08-22T05:31:39.424Z,95775.70
2022-08-22T05:34:16.972Z,95781.80
2022-08-22T05:36:56.306Z,95783.31
2022-08-22T05:39:28.335Z,95785.41
2022-08-22T05:42:01.559Z,95781.80
2022-08-22T05:44:38.182Z,95781.33
2022-08-22T05:47:42.465Z,95781.50
2022-08-22T05:50:33.365Z,95782.91
2022-08-22T05:53:15.211Z,95789.05
2022-08-22T05:56:12.814Z,95785.23
2022-08-22T05:58:47.585Z,95781.77
2022-08-22T06:01:21.623Z,95784.96
2022-08-22T06:04:03.683Z,95779.40
2022-08-22T06:06:39.780Z,95777.23
2022-08-22T06:09:35.592Z,95777.88
2022-08-22T06:12:22.006Z,95780.53
2022-08-22T06:15:03.378Z,95782.93
2022-08-22T06:17:49.238Z,95785.44
2022-08-22T06:20:31.111Z,95790.34
2022-08-22T06:23:02.731Z,95793.40
2022-08-22T06:25:35.421Z,95792.31
2022-08-22T06:28:09.676Z,95793.95
2022-08-22T06:30:40.458Z,95793.92
2022-08-22T06:33:17.537Z,95794.67
2022-08-22T06:36:11.539Z,95793.58
2022-08-22T06:39:23.283Z,95790.08
2022-08-22T06:42:04.178Z,95788.13
2022-08-22T06:44:45.443Z,95785.73
2022-08-22T06:47:27.041Z,95791.30
2022-08-22T06:50:21.847Z,95795.40
2022-08-22T06:53:13.565Z,95797.89
2022-08-22T06:56:00.050Z,95797.99
2022-08-22T06:58:53.010Z,95798.62
2022-08-22T07:01:28.255Z,95801.27
2022-08-22T07:04:05.911Z,95799.52
2022-08-22T07:06:44.202Z,95797.50
2022-08-22T07:09:35.245Z,95796.04
2022-08-22T07:12:16.864Z,95795.94
2022-08-22T07:14:54.198Z,95795.67
2022-08-22T07:17:28.045Z,95800.55
2022-08-22T07:20:49.915Z,95800.49
2022-08-22T07:23:45.347Z,95807.48
2022-08-22T07:26:31.023Z,95811.66
2022-08-22T07:29:17.761Z,95813.88
2022-08-22T07:31:52.464Z,95820.36
2022-08-22T07:34:55.095Z,95819.41
2022-08-22T07:37:40.165Z,95824.81
2022-08-22T07:40:10.006Z,95824.16
2022-08-22T07:43:04.814Z,95819.83
2022-08-22T07:45:52.528Z,95820.14
2022-08-22T07:48:26.422Z,95818.27
2022-08-22T07:51:13.909Z,95814.06
2022-08-22T07:53:47.631Z,95810.02
2022-08-22T07:56:26.580Z,95810.16
2022-08-22T07:59:13.028Z,95814.02
2022-08-22T08:01:49.091Z,95815.70
2022-08-22T08:04:28.875Z,95815.72
2022-08-22T08:07:02.807Z,95820.17
2022-08-22T08:09:39.557Z,95818.36
2022-08-22T08:12:15.713Z,95812.19
2022-08-22T08:14:55.285Z,95805.29
2022-08-22T08:17:32.002Z,95802.83
2022-08-22T08:20:11.457Z,95801.83
2022-08-22T08:22:43.717Z,95806.29
2022-08-22T08:25:26.420Z,95805.98
2022-08-22T08:28:19.602Z,95801.80
2022-08-22T08:31:01.894Z,95805.61
2022-08-22T08:33:33.228Z,95809.58
2022-08-22T08:36:08.284Z,95809.90
2022-08-22T08:38:56.313Z,95812.45
2022-08-22T08:41:34.475Z,95815.69
2022-08-22T08:44:28.658Z,95812.71
2022-08-22T08:47:27.814Z,95813.74
2022-08-22T08:50:22.243Z,95813.42
2022-08-22T08:53:11.677Z,95811.27
2022-08-22T08:55:48.361Z,95818.61
2022-08-22T08:58:41.635Z,95821.25
2022-08-22T09:01:51.650Z,95819.04
2022-08-22T09:04:42.547Z,95809.63
2022-08-22T09:07:41.719Z,95802.92
2022-08-22T09:10:22.925Z,95796.00
2022-08-22T09:16:05.182Z,95797.85
2022-08-22T09:18:55.431Z,95793.62
2022-08-22T09:21:48.945Z,95786.15
2022-08-22T09:25:08.548Z,95788.25
2022-08-22T09:27:56.435Z,95788.95
2022-08-22T09:30:44.351Z,95788.02
2022-08-22T09:33:20.193Z,95787.06
2022-08-22T09:35:53.933Z,95787.39
2022-08-22T09:38:47.904Z,95787.91
2022-08-22T09:41:28.005Z,95787.89
2022-08-22T09:44:15.078Z,95791.69
2022-08-22T09:47:03.284Z,95791.69
2022-08-22T09:50:06.663Z,95791.95
2022-08-22T09:53:08.761Z,95789.33
2022-08-22T09:56:15.647Z,95789.64
2022-08-22T09:58:48.358Z,95788.56
2022-08-22T10:01:44.657Z,95793.09
2022-08-22T10:04:42.887Z,95787.63
2022-08-22T10:07:15.175Z,95788.45
2022-08-22T10:10:13.429Z,95787.16
2022-08-22T10:13:13.877Z,95784.95
2022-08-22T10:16:22.068Z,95775.55
2022-08-22T10:19:18.189Z,95773.63
2022-08-22T10:22:06.333Z,95772.92
2022-08-22T10:24:48.397Z,95775.23
2022-08-22T10:27:28.994Z,95777.07
2022-08-22T10:30:09.753Z,95775.10
2022-08-22T10:33:03.742Z,95776.77
2022-08-22T10:35:40.633Z,95774.20
2022-08-22T10:38:46.149Z,95778.96
2022-08-22T10:41:56.823Z,95774.46
2022-08-22T10:44:45.122Z,95772.54
2022-08-22T10:47:21.622Z,95763.74
2022-08-22T10:50:00.974Z,95762.81
2022-08-22T10:52:45.094Z,95762.96
2022-08-22T10:55:22.630Z,95758.64
2022-08-22T10:58:03.095Z,95753.73
2022-08-22T11:00:46.485Z,95745.98
2022-08-22T11:03:35.623Z,95751.07
2022-08-22T11:06:44.848Z,95748.73
2022-08-22T11:09:20.858Z,95751.70
2022-08-22T11:12:19.558Z,95750.08
2022-08-22T11:15:34.687Z,95748.80
2022-08-22T11:18:35.995Z,95743.85
2022-08-22T11:21:31.309Z,95744.34
2022-08-22T11:24:54.014Z,95743.84
2022-08-22T11:27:46.821Z,95739.12
2022-08-22T11:30:25.947Z,95736.91
2022-08-22T11:33:11.575Z,95735.81
2022-08-22T11:36:26.360Z,95732.89
2022-08-22T11:39:18.071Z,95728.41
2022-08-22T11:41:52.201Z,95723.45
2022-08-22T11:44:34.344Z,95716.55
2022-08-22T11:47:14.235Z,95715.48
2022-08-22T11:49:46.634Z,95709.38
2022-08-22T11:52:21.602Z,95712.76
2022-08-22T11:55:02.338Z,95710.71
2022-08-22T11:57:44.245Z,95705.85
2022-08-22T12:00:48.967Z,95695.41
2022-08-22T12:03:42.395Z,95685.83
2022-08-22T12:06:32.699Z,95686.02
2022-08-22T12:09:23.677Z,95684.10
2022-08-22T12:12:14.346Z,95683.23
2022-08-22T12:14:58.883Z,95682.64
2022-08-22T12:17:50.928Z,95679.05
2022-08-22T12:20:46.332Z,95674.77
2022-08-22T12:23:48.990Z,95669.48
2022-08-22T12:27:07.856Z,95665.25
2022-08-22T12:29:58.293Z,95662.17
2022-08-22T12:32:37.106Z,95665.54
2022-08-22T12:35:48.071Z,95672.14
2022-08-22T12:38:30.677Z,95669.23
2022-08-22T12:41:27.652Z,95670.38
2022-08-22T12:44:19.530Z,95668.50
2022-08-22T12:47:10.464Z,95665.78
2022-08-22T12:50:17.835Z,95672.94
2022-08-22T12:53:07.259Z,95664.02
2022-08-22T12:55:43.373Z,95659.82
2022-08-22T12:58:33.857Z,95659.18
2022-08-22T13:01:10.958Z,95663.59
2022-08-22T13:04:13.076Z,95661.82
2022-08-22T13:07:08.979Z,95666.12
2022-08-22T13:09:43.310Z,95662.46
2022-08-22T13:12:24.458Z,95664.13
2022-08-22T13:15:01.195Z,95668.03
2022-08-22T13:17:35.912Z,95668.42
2022-08-22T13:20:22.830Z,95667.59
2022-08-22T13:22:57.092Z,95668.90
2022-08-22T13:25:30.992Z,95668.98
2022-08-22T13:28:03.479Z,95670.35
2022-08-22T13:30:37.976Z,95667.96
2022-08-22T13:33:26.255Z,95673.17
2022-08-22T13:36:02.379Z,95663.95
2022-08-22T13:38:52.224Z,95667.58
2022-08-22T13:41:30.889Z,95667.30
2022-08-22T13:44:09.448Z,95667.79
2022-08-22T13:46:58.000Z,95673.59
2022-08-22T13:49:53.295Z,95681.44
2022-08-22T13:52:41.346Z,95686.42
2022-08-22T13:55:21.615Z,95681.38
2022-08-22T13:58:24.856Z,95678.86
2022-08-22T14:01:16.110Z,95678.05
2022-08-22T14:04:00.852Z,95677.96
2022-08-22T14:06:57.528Z,95674.86
2022-08-22T14:09:56.457Z,95673.44
2022-08-22T14:12:33.701Z,95681.48
2022-08-22T14:15:44.791Z,95683.04
2022-08-22T14:18:30.045Z,95692.80
2022-08-22T14:21:27.944Z,95690.41
2022-08-22T14:24:15.001Z,95685.73
2022-08-22T14:26:57.810Z,95684.73
2022-08-22T14:29:34.744Z,95676.52
2022-08-22T14:32:26.769Z,95672.70
2022-08-22T14:35:05.089Z,95673.34
2022-08-22T14:37:43.538Z,95670.74
2022-08-22T14:40:26.358Z,95666.99
2022-08-22T14:43:16.877Z,95662.06
2022-08-22T14:46:02.917Z,95658.20
2022-08-22T14:49:08.008Z,95662.98
2022-08-22T14:51:47.961Z,95660.52
2022-08-22T14:54:23.428Z,95668.23
2022-08-22T14:57:01.232Z,95669.17
2022-08-22T14:59:45.821Z,95679.42
2022-08-22T15:02:30.085Z,95679.59
2022-08-22T15:05:21.210Z,95678.70
2022-08-22T15:08:00.516Z,95680.39
2022-08-22T15:10:35.860Z,95671.79
2022-08-22T15:13:09.213Z,95678.79
2022-08-22T15:15:54.969Z,95672.77
2022-08-22T15:18:29.274Z,95676.52
2022-08-22T15:21:31.509Z,95678.04
2022-08-22T15:24:10.872Z,95686.61
2022-08-22T15:26:51.746Z,95688.56
2022-08-22T15:29:23.330Z,95685.89
2022-08-22T15:31:57.733Z,95697.35
2022-08-22T15:34:33.015Z,95702.22
2022-08-22T15:37:21.684Z,95708.84
2022-08-22T15:40:12.058Z,95718.31
2022-08-22T15:42:51.369Z,95723.18
2022-08-22T15:45:38.624Z,95734.31
2022-08-22T15:48:26.362Z,95742.00
2022-08-22T15:51:02.604Z,95741.77
2022-08-22T15:54:02.048Z,95746.34
2022-08-22T15:56:56.351Z,95750.63
2022-08-22T15:59:54.138Z,95754.75
2022-08-22T16:02:35.720Z,95758.60
2022-08-22T16:05:09.017Z,95769.95
2022-08-22T16:07:49.967Z,95770.04
2022-08-22T16:10:24.712Z,95771.63
2022-08-22T16:13:15.046Z,95772.27
2022-08-22T16:15:56.374Z,95776.39
2022-08-22T16:18:37.736Z,95772.81
2022-08-22T16:21:24.302Z,95768.61
2022-08-22T16:23:57.565Z,95777.13
2022-08-22T16:26:43.369Z,95784.27
2022-08-22T16:29:17.823Z,95787.23
2022-08-22T16:31:49.153Z,95790.73
2022-08-22T16:34:18.412Z,95804.95
2022-08-22T16:37:15.016Z,95810.11
2022-08-22T16:39:48.844Z,95806.31
2022-08-22T16:42:22.195Z,95815.92
2022-08-22T16:45:05.246Z,95816.49
2022-08-22T16:47:36.576Z,95820.55
2022-08-22T16:50:10.063Z,95826.57
2022-08-22T16:52:51.318Z,95828.21
2022-08-22T16:55:29.875Z,95836.13
2022-08-22T16:58:22.177Z,95838.35
2022-08-22T17:01:09.865Z,95837.95
2022-08-22T17:04:14.657Z,95841.91
2022-08-22T17:06:49.584Z,95847.14
2022-08-22T17:09:40.591Z,95847.94
2022-08-22T17:12:25.468Z,95843.56
2022-08-22T17:15:04.365Z,95850.99
2022-08-22T17:17:49.257Z,95850.58
2022-08-22T17:20:42.624Z,95848.30
2022-08-22T17:23:43.493Z,95847.08
2022-08-22T17:26:39.012Z,95843.79
2022-08-22T17:29:16.431Z,95853.14
2022-08-22T17:31:55.921Z,95854.14
2022-08-22T17:35:12.994Z,95858.45
2022-08-22T17:38:28.577Z,95854.80
2022-08-22T17:41:09.071Z,95852.01
2022-08-22T17:43:53.070Z,95857.73
2022-08-22T17:46:36.029Z,95862.32
2022-08-22T17:49:46.447Z,95869.31
2022-08-22T17:52:24.848Z,95870.94
2022-08-22T17:55:02.613Z,95882.67
2022-08-22T17:57:34.559Z,95887.16
2022-08-22T18:00:36.383Z,95889.71
2022-08-22T18:03:15.966Z,95901.23
2022-08-22T18:05:52.944Z,95912.63
2022-08-22T18:11:56.453Z,95925.02
2022-08-22T18:15:01.093Z,95927.75
2022-08-22T18:17:45.303Z,95936.45
2022-08-22T18:20:28.403Z,95946.38
2022-08-22T18:23:36.316Z,95953.96
2022-08-22T18:26:32.023Z,95963.17
2022-08-22T18:29:12.428Z,95966.38
2022-08-22T18:32:02.497Z,95966.33
2022-08-22T18:34:43.190Z,95964.12
2022-08-22T18:37:42.177Z,95950.85
2022-08-22T18:40:35.313Z,95952.48
2022-08-22T18:43:20.312Z,95956.74
2022-08-22T18:45:49.499Z,95962.34
2022-08-22T18:48:20.784Z,95959.83
2022-08-22T18:50:50.478Z,95950.05
2022-08-22T18:53:46.590Z,95956.40
2022-08-22T18:56:39.292Z,95956.71
2022-08-22T18:59:32.262Z,95959.81
2022-08-22T19:02:20.940Z,95958.76
2022-08-22T19:05:13.102Z,95959.69
2022-08-22T19:07:58.414Z,95952.64
2022-08-22T19:10:38.052Z,95945.98
2022-08-22T19:13:39.521Z,95956.79
2022-08-22T19:16:51.761Z,95961.21
2022-08-22T19:20:18.321Z,95953.24
2022-08-22T19:22:51.109Z,95960.23
2022-08-22T19:25:27.317Z,95959.80
2022-08-22T19:28:10.324Z,95960.90
2022-08-22T19:30:44.644Z,95949.41
2022-08-22T19:33:38.872Z,95942.48
2022-08-22T19:36:31.835Z,95944.61
2022-08-22T19:39:12.927Z,95946.90
2022-08-22T19:41:53.225Z,95953.55
2022-08-22T19:44:22.616Z,95955.29
2022-08-22T19:47:18.514Z,95959.14
2022-08-22T19:50:13.812Z,95956.64
2022-08-22T19:52:53.762Z,95959.19
2022-08-22T19:55:38.797Z,95955.59
2022-08-22T19:58:13.412Z,95960.34
2022-08-22T20:00:54.563Z,95962.23
2022-08-22T20:03:31.880Z,95965.42
2022-08-22T20:06:43.889Z,95967.52
2022-08-22T20:09:33.134Z,95970.30
2022-08-22T20:12:23.277Z,95975.13
2022-08-22T20:14:52.981Z,95979.19
2022-08-22T20:17:25.287Z,95982.81
2022-08-22T20:20:18.712Z,95987.02
2022-08-22T20:23:08.934Z,95998.77
2022-08-22T20:25:42.900Z,95999.84
2022-08-22T20:28:51.093Z,96001.83
2022-08-22T20:31:25.089Z,96013.52
2022-08-22T20:34:11.020Z,96017.41
2022-08-22T20:36:44.864Z,96017.10
2022-08-22T20:39:35.680Z,96019.64
2022-08-22T20:42:09.750Z,96019.80
2022-08-22T20:44:45.988Z,96020.33
2022-08-22T20:47:40.773Z,96015.86
2022-08-22T20:50:12.480Z,96012.33
2022-08-22T20:52:51.793Z,96011.59
2022-08-22T20:55:27.346Z,96015.61
2022-08-22T20:58:19.445Z,96018.83
2022-08-22T21:00:52.196Z,96018.03
2022-08-22T21:03:46.478Z,96013.45
2022-08-22T21:06:29.679Z,96003.50
2022-08-22T21:09:54.061Z,96006.16
2022-08-22T21:12:24.562Z,96012.70
2022-08-22T21:14:53.163Z,96009.07
2022-08-22T21:17:34.504Z,96013.91
2022-08-22T21:20:23.082Z,96017.54
2022-08-22T21:22:53.333Z,96017.45
2022-08-22T21:25:23.370Z,96011.77
2022-08-22T21:27:56.287Z,96008.65
2022-08-22T21:30:28.645Z,96003.64
2022-08-22T21:32:58.619Z,95997.91
2022-08-22T21:35:33.113Z,96002.46
2022-08-22T21:38:03.272Z,96006.98
2022-08-22T21:40:38.197Z,96004.31
2022-08-22T21:43:14.034Z,96000.79
2022-08-22T21:45:45.051Z,96001.44
2022-08-22T21:48:46.679Z,96003.63
2022-08-22T21:51:23.153Z,95999.25
2022-08-22T21:54:18.408Z,96001.58
2022-08-22T21:56:50.234Z,96009.26
2022-08-22T21:59:52.309Z,96008.23
2022-08-22T22:02:41.348Z,96005.08
2022-08-22T22:05:14.168Z,95994.44
2022-08-22T22:07:47.314Z,95993.61
2022-08-22T22:10:20.240Z,95999.09
2022-08-22T22:12:52.379Z,95996.61
2022-08-22T22:15:24.836Z,96003.10
2022-08-22T22:17:55.324Z,95999.63
2022-08-22T22:20:27.992Z,95996.20
2022-08-22T22:22:57.404Z,95991.62
2022-08-22T22:25:39.766Z,95987.92
2022-08-22T22:28:29.168Z,95984.13
2022-08-22T22:30:58.980Z,95984.28
2022-08-22T22:33:32.660Z,95985.83
2022-08-22T22:36:09.688Z,95985.86
2022-08-22T22:38:40.769Z,95984.29
2022-08-22T22:41:10.188Z,95985.47
2022-08-22T22:43:39.111Z,95983.45
2022-08-22T22:46:09.616Z,95988.45
2022-08-22T22:48:39.426Z,95987.95
2022-08-22T22:51:10.978Z,95990.13
2022-08-22T22:53:42.903Z,95988.77
2022-08-22T22:56:22.625Z,95988.83
2022-08-22T22:58:59.222Z,95985.45
2022-08-22T23:01:34.575Z,95982.28
2022-08-22T23:04:05.852Z,95980.69
2022-08-22T23:06:35.582Z,95984.09
2022-08-22T23:09:06.513Z,95984.30
2022-08-22T23:11:36.694Z,95984.54
2022-08-22T23:14:06.214Z,95989.60
2022-08-22T23:16:37.345Z,95989.66
2022-08-22T23:19:12.890Z,95988.16
2022-08-22T23:21:44.927Z,95990.42
2022-08-22T23:24:15.494Z,95992.27
2022-08-22T23:26:45.260Z,95990.59
2022-08-22T23:29:15.832Z,95986.96
2022-08-22T23:32:00.561Z,95987.95
2022-08-22T23:34:35.217Z,95990.61
2022-08-22T23:37:07.013Z,95987.09
2022-08-22T23:39:38.485Z,95986.97
2022-08-22T23:42:10.506Z,95984.63
2022-08-22T23:44:41.936Z,95987.11
2022-08-22T23:47:12.319Z,95991.51
2022-08-22T23:49:43.490Z,95991.67
2022-08-22T23:52:14.455Z,95989.19
2022-08-22T23:54:43.482Z,95988.89
2022-08-22T23:57:14.892Z,95984.14
2022-08-22T23:59:46.414Z,95984.02
